createdAt,value
2023-04-20T00:00:46.279Z,692.50
2023-04-20T00:01:46.287Z,691.60
2023-04-20T00:02:46.353Z,692.60
2023-04-20T00:03:46.337Z,681.30
2023-04-20T00:04:46.219Z,678.80
2023-04-20T00:05:46.213Z,677.70
2023-04-20T00:06:46.195Z,673.00
2023-04-20T00:07:46.181Z,699.10
2023-04-20T00:08:46.163Z,688.70
2023-04-20T00:09:46.158Z,694.70
2023-04-20T00:10:46.175Z,677.30
2023-04-20T00:11:46.127Z,674.00
2023-04-20T00:12:46.107Z,688.80
2023-04-20T00:13:46.110Z,689.80
2023-04-20T00:14:46.093Z,675.90
2023-04-20T00:15:46.096Z,691.00
2023-04-20T00:16:46.107Z,678.40
2023-04-20T00:17:46.070Z,677.80
2023-04-20T00:18:46.055Z,677.30
2023-04-20T00:19:46.031Z,663.80
2023-04-20T00:20:46.040Z,671.40
2023-04-20T00:21:45.995Z,674.00
2023-04-20T00:22:46.016Z,688.40
2023-04-20T00:23:46.014Z,675.20
2023-04-20T00:24:45.955Z,681.70
2023-04-20T00:25:46.010Z,669.90
2023-04-20T00:26:45.954Z,686.90
2023-04-20T00:27:45.940Z,667.80
2023-04-20T00:28:45.932Z,683.80
2023-04-20T00:29:45.912Z,667.30
2023-04-20T00:30:45.970Z,672.20
2023-04-20T00:31:45.896Z,668.00
2023-04-20T00:32:45.916Z,672.50
2023-04-20T00:33:45.863Z,674.60
2023-04-20T00:34:45.855Z,669.20
2023-04-20T00:35:45.879Z,665.70
2023-04-20T00:36:45.838Z,663.10
2023-04-20T00:37:45.819Z,679.70
2023-04-20T00:38:45.818Z,666.40
2023-04-20T00:39:45.792Z,676.90
2023-04-20T00:40:45.805Z,679.60
2023-04-20T00:41:45.764Z,664.00
2023-04-20T00:42:45.757Z,660.50
2023-04-20T00:43:45.744Z,666.30
2023-04-20T00:44:45.760Z,659.10
2023-04-20T00:45:45.766Z,670.50
2023-04-20T00:46:45.816Z,671.20
2023-04-20T00:47:45.710Z,669.30
2023-04-20T00:48:45.675Z,674.80
2023-04-20T00:49:45.692Z,669.10
2023-04-20T00:50:45.712Z,679.10
2023-04-20T00:51:45.658Z,661.30
2023-04-20T00:52:45.658Z,667.40
2023-04-20T00:53:45.633Z,659.50
2023-04-20T00:54:45.624Z,661.00
2023-04-20T00:55:45.657Z,660.60
2023-04-20T00:56:45.592Z,652.90
2023-04-20T00:57:45.585Z,657.00
2023-04-20T00:58:45.579Z,635.80
2023-04-20T00:59:45.577Z,625.90
2023-04-20T01:00:45.580Z,634.20
2023-04-20T01:01:45.555Z,620.20
2023-04-20T01:02:45.622Z,613.80
2023-04-20T01:03:45.794Z,632.60
2023-04-20T01:04:45.515Z,634.90
2023-04-20T01:05:45.545Z,632.60
2023-04-20T01:06:45.488Z,625.00
2023-04-20T01:07:45.472Z,614.00
2023-04-20T01:08:45.490Z,607.20
2023-04-20T01:09:45.475Z,585.80
2023-04-20T01:10:45.472Z,565.10
2023-04-20T01:11:45.415Z,546.00
2023-04-20T01:12:45.412Z,542.40
2023-04-20T01:13:45.443Z,560.40
2023-04-20T01:14:45.371Z,588.30
2023-04-20T01:15:45.452Z,594.30
2023-04-20T01:16:45.366Z,608.20
2023-04-20T01:17:45.426Z,624.40
2023-04-20T01:18:45.351Z,635.40
2023-04-20T01:19:45.350Z,650.70
2023-04-20T01:20:45.369Z,635.80
2023-04-20T01:21:45.322Z,639.40
2023-04-20T01:22:45.297Z,646.80
2023-04-20T01:23:45.306Z,655.20
2023-04-20T01:24:45.304Z,661.70
2023-04-20T01:25:45.324Z,631.60
2023-04-20T01:26:45.259Z,628.50
2023-04-20T01:27:45.254Z,598.90
2023-04-20T01:28:45.238Z,594.70
2023-04-20T01:29:45.245Z,624.50
2023-04-20T01:30:45.209Z,615.80
2023-04-20T01:31:45.323Z,613.10
2023-04-20T01:32:45.258Z,613.80
2023-04-20T01:33:45.212Z,644.50
2023-04-20T01:34:45.154Z,658.70
2023-04-20T01:35:45.149Z,664.00
2023-04-20T01:36:45.205Z,680.70
2023-04-20T01:37:45.171Z,679.60
2023-04-20T01:38:45.249Z,697.90
2023-04-20T01:39:45.229Z,682.00
2023-04-20T01:40:45.168Z,689.40
2023-04-20T01:41:45.122Z,685.30
2023-04-20T01:42:45.195Z,678.70
2023-04-20T01:43:45.065Z,678.90
2023-04-20T01:44:45.048Z,654.10
2023-04-20T01:45:45.050Z,654.90
2023-04-20T01:46:45.130Z,655.00
2023-04-20T01:47:45.074Z,652.10
2023-04-20T01:48:45.037Z,652.70
2023-04-20T01:49:45.029Z,662.30
2023-04-20T01:50:44.997Z,693.30
2023-04-20T01:51:45.012Z,679.40
2023-04-20T01:52:44.966Z,708.10
2023-04-20T01:53:44.968Z,711.40
2023-04-20T01:54:44.936Z,706.20
2023-04-20T01:55:44.933Z,708.90
2023-04-20T01:56:44.948Z,699.30
2023-04-20T01:57:44.892Z,681.80
2023-04-20T01:58:44.902Z,679.40
2023-04-20T01:59:44.896Z,686.50
2023-04-20T02:00:45.016Z,673.10
2023-04-20T02:01:44.896Z,645.80
2023-04-20T02:02:44.986Z,647.60
2023-04-20T02:03:45.006Z,642.00
2023-04-20T02:04:44.850Z,641.60
2023-04-20T02:05:44.832Z,639.20
2023-04-20T02:06:44.858Z,648.80
2023-04-20T02:07:44.795Z,666.00
2023-04-20T02:08:44.774Z,682.20
2023-04-20T02:09:44.812Z,679.20
2023-04-20T02:10:44.778Z,656.60
2023-04-20T02:11:44.794Z,676.10
2023-04-20T02:12:44.710Z,675.80
2023-04-20T02:13:44.706Z,679.70
2023-04-20T02:14:44.690Z,703.80
2023-04-20T02:15:44.705Z,713.50
2023-04-20T02:16:44.780Z,693.20
2023-04-20T02:17:44.702Z,678.10
2023-04-20T02:18:44.656Z,701.60
2023-04-20T02:19:44.664Z,733.00
2023-04-20T02:20:44.683Z,746.00
2023-04-20T02:21:44.692Z,724.40
2023-04-20T02:22:44.619Z,715.40
2023-04-20T02:23:44.606Z,710.30
2023-04-20T02:24:44.618Z,713.40
2023-04-20T02:25:44.607Z,721.00
2023-04-20T02:26:44.618Z,710.20
2023-04-20T02:27:44.569Z,701.30
2023-04-20T02:28:44.550Z,676.70
2023-04-20T02:29:44.543Z,654.20
2023-04-20T02:30:44.527Z,623.10
2023-04-20T02:31:44.657Z,599.20
2023-04-20T02:32:44.563Z,581.80
2023-04-20T02:33:44.499Z,577.20
2023-04-20T02:34:44.488Z,616.80
2023-04-20T02:35:44.507Z,655.70
2023-04-20T02:36:44.498Z,674.80
2023-04-20T02:37:44.458Z,700.60
2023-04-20T02:38:44.449Z,710.30
2023-04-20T02:39:44.429Z,721.00
2023-04-20T02:40:44.402Z,739.70
2023-04-20T02:41:44.417Z,745.10
2023-04-20T02:42:44.434Z,744.50
2023-04-20T02:43:44.376Z,762.60
2023-04-20T02:44:44.362Z,743.50
2023-04-20T02:45:44.356Z,762.50
2023-04-20T02:46:44.394Z,779.20
2023-04-20T02:47:44.420Z,739.60
2023-04-20T02:48:44.337Z,647.90
2023-04-20T02:49:44.315Z,595.30
2023-04-20T02:50:44.298Z,620.80
2023-04-20T02:51:44.275Z,676.60
2023-04-20T02:52:44.320Z,734.00
2023-04-20T02:53:44.255Z,784.00
2023-04-20T02:54:44.261Z,805.40
2023-04-20T02:55:44.244Z,800.80
2023-04-20T02:56:44.238Z,791.90
2023-04-20T02:57:44.257Z,769.00
2023-04-20T02:58:44.216Z,750.50
2023-04-20T02:59:44.202Z,751.10
2023-04-20T03:00:44.188Z,721.50
2023-04-20T03:01:44.246Z,690.30
2023-04-20T03:02:44.291Z,734.40
2023-04-20T03:03:44.294Z,728.60
2023-04-20T03:04:44.310Z,739.70
2023-04-20T03:05:44.133Z,746.30
2023-04-20T03:06:44.132Z,780.40
2023-04-20T03:07:44.146Z,798.20
2023-04-20T03:08:44.092Z,778.80
2023-04-20T03:09:44.083Z,790.50
2023-04-20T03:10:44.082Z,740.60
2023-04-20T03:11:44.054Z,705.20
2023-04-20T03:12:44.116Z,669.10
2023-04-20T03:13:44.085Z,673.30
2023-04-20T03:14:44.037Z,641.60
2023-04-20T03:15:44.008Z,624.60
2023-04-20T03:16:44.100Z,577.00
2023-04-20T03:17:44.046Z,579.30
2023-04-20T03:18:44.226Z,455.60
2023-04-20T03:19:43.984Z,434.10
2023-04-20T03:20:43.964Z,428.80
2023-04-20T03:21:43.988Z,416.60
2023-04-20T03:22:44.032Z,381.20
2023-04-20T03:23:43.917Z,167.10
2023-04-20T03:24:43.917Z,177.10
2023-04-20T03:25:43.907Z,203.00
2023-04-20T03:26:43.889Z,226.70
2023-04-20T03:27:43.919Z,711.90
2023-04-20T03:28:43.870Z,651.10
2023-04-20T03:29:43.854Z,704.60
2023-04-20T03:30:43.856Z,679.90
2023-04-20T03:31:43.896Z,499.00
2023-04-20T03:32:43.934Z,223.10
2023-04-20T03:33:43.807Z,393.40
2023-04-20T03:34:43.805Z,723.10
2023-04-20T03:35:43.788Z,702.80
2023-04-20T03:36:43.777Z,699.10
2023-04-20T03:37:43.758Z,641.30
2023-04-20T03:38:43.793Z,670.10
2023-04-20T03:39:43.736Z,650.00
2023-04-20T03:40:43.736Z,521.20
2023-04-20T03:41:43.755Z,244.80
2023-04-20T03:42:43.709Z,232.10
2023-04-20T03:43:43.746Z,627.80
2023-04-20T03:44:43.708Z,623.20
2023-04-20T03:45:43.723Z,709.50
2023-04-20T03:46:43.654Z,620.30
2023-04-20T03:47:43.694Z,641.40
2023-04-20T03:48:43.686Z,605.40
2023-04-20T03:49:43.643Z,610.00
2023-04-20T03:50:43.623Z,595.40
2023-04-20T03:51:43.629Z,611.30
2023-04-20T03:52:43.608Z,593.70
2023-04-20T03:53:43.624Z,603.50
2023-04-20T03:54:43.571Z,199.90
2023-04-20T03:55:43.585Z,187.80
2023-04-20T03:56:43.567Z,641.70
2023-04-20T03:57:43.568Z,675.90
2023-04-20T03:58:43.566Z,672.10
2023-04-20T03:59:43.815Z,588.50
2023-04-20T04:00:43.515Z,606.20
2023-04-20T04:01:43.489Z,589.60
2023-04-20T04:02:43.653Z,584.20
2023-04-20T04:03:43.696Z,583.80
2023-04-20T04:04:43.529Z,558.90
2023-04-20T04:05:43.463Z,547.30
2023-04-20T04:06:43.510Z,541.50
2023-04-20T04:07:43.433Z,548.10
2023-04-20T04:08:43.460Z,531.50
2023-04-20T04:09:43.421Z,497.10
2023-04-20T04:10:43.425Z,221.40
2023-04-20T04:11:43.454Z,251.60
2023-04-20T04:12:43.396Z,403.80
2023-04-20T04:13:43.380Z,592.70
2023-04-20T04:14:43.333Z,579.30
2023-04-20T04:15:43.333Z,563.20
2023-04-20T04:16:43.394Z,560.40
2023-04-20T04:17:43.332Z,547.90
2023-04-20T04:18:43.349Z,550.20
2023-04-20T04:19:43.298Z,541.80
2023-04-20T04:20:43.314Z,541.60
2023-04-20T04:21:43.279Z,538.80
2023-04-20T04:22:43.258Z,532.00
2023-04-20T04:23:43.288Z,199.00
2023-04-20T04:24:43.258Z,236.10
2023-04-20T04:25:43.212Z,520.60
2023-04-20T04:26:43.230Z,581.10
2023-04-20T04:27:43.193Z,579.60
2023-04-20T04:28:43.260Z,578.40
2023-04-20T04:29:43.177Z,564.30
2023-04-20T04:30:43.179Z,578.10
2023-04-20T04:31:43.174Z,570.10
2023-04-20T04:32:43.216Z,566.80
2023-04-20T04:33:43.179Z,571.30
2023-04-20T04:34:43.136Z,553.90
2023-04-20T04:35:43.130Z,320.10
2023-04-20T04:36:43.121Z,152.10
2023-04-20T04:37:43.104Z,306.80
2023-04-20T04:38:43.133Z,583.30
2023-04-20T04:39:43.082Z,590.90
2023-04-20T04:40:43.059Z,571.60
2023-04-20T04:41:43.058Z,579.30
2023-04-20T04:42:43.029Z,564.30
2023-04-20T04:43:43.060Z,554.50
2023-04-20T04:44:43.030Z,557.80
2023-04-20T04:45:42.999Z,69.30
2023-04-20T04:46:43.106Z,78.50
2023-04-20T04:47:42.991Z,457.30
2023-04-20T04:48:43.002Z,564.10
2023-04-20T04:49:42.973Z,556.80
2023-04-20T04:50:42.964Z,541.50
2023-04-20T04:51:42.942Z,543.70
2023-04-20T04:52:42.962Z,544.30
2023-04-20T04:53:42.966Z,532.40
2023-04-20T04:54:42.909Z,533.30
2023-04-20T04:55:42.899Z,271.20
2023-04-20T04:56:42.892Z,81.70
2023-04-20T04:57:42.891Z,257.60
2023-04-20T04:58:42.881Z,555.20
2023-04-20T04:59:42.887Z,545.10
2023-04-20T05:00:42.843Z,554.40
2023-04-20T05:01:42.898Z,547.90
2023-04-20T05:02:42.942Z,539.20
2023-04-20T05:03:42.964Z,152.70
2023-04-20T05:04:42.911Z,115.60
2023-04-20T05:05:42.781Z,346.10
2023-04-20T05:06:42.776Z,557.20
2023-04-20T05:07:42.749Z,225.00
2023-04-20T05:08:42.741Z,100.80
2023-04-20T05:09:42.771Z,567.80
2023-04-20T05:10:42.698Z,563.20
2023-04-20T05:11:42.701Z,563.80
2023-04-20T05:12:42.692Z,388.30
2023-04-20T05:13:42.687Z,113.60
2023-04-20T05:14:42.699Z,132.80
2023-04-20T05:15:43.954Z,95.30
2023-04-20T05:16:42.734Z,482.60
2023-04-20T05:17:42.711Z,611.50
2023-04-20T05:18:42.615Z,72.00
2023-04-20T05:19:42.655Z,118.90
2023-04-20T05:20:42.597Z,87.90
2023-04-20T05:21:42.621Z,523.60
2023-04-20T05:22:42.573Z,292.10
2023-04-20T05:23:42.570Z,90.70
2023-04-20T05:24:42.609Z,490.70
2023-04-20T05:25:42.535Z,496.20
2023-04-20T05:26:42.542Z,64.30
2023-04-20T05:27:42.536Z,118.80
2023-04-20T05:28:42.527Z,570.10
2023-04-20T05:29:42.581Z,237.30
2023-04-20T05:30:42.490Z,129.50
2023-04-20T05:31:42.510Z,215.80
2023-04-20T05:32:42.470Z,429.90
2023-04-20T05:33:42.474Z,77.60
2023-04-20T05:34:42.474Z,70.80
2023-04-20T05:35:42.439Z,120.90
2023-04-20T05:36:42.423Z,58.90
2023-04-20T05:37:42.443Z,496.00
2023-04-20T05:38:42.392Z,246.90
2023-04-20T05:39:42.404Z,60.30
2023-04-20T05:40:42.348Z,98.50
2023-04-20T05:41:42.350Z,455.00
2023-04-20T05:42:42.342Z,203.70
2023-04-20T05:43:42.343Z,62.10
2023-04-20T05:44:42.370Z,75.90
2023-04-20T05:45:42.390Z,65.10
2023-04-20T05:46:42.301Z,70.30
2023-04-20T05:47:42.415Z,71.90
2023-04-20T05:48:42.311Z,173.60
2023-04-20T05:49:42.305Z,211.20
2023-04-20T05:50:42.275Z,226.60
2023-04-20T05:51:42.236Z,237.90
2023-04-20T05:52:42.247Z,226.70
2023-04-20T05:53:42.296Z,138.80
2023-04-20T05:54:42.251Z,57.70
2023-04-20T05:55:42.195Z,52.50
2023-04-20T05:56:42.220Z,177.90
2023-04-20T05:57:42.162Z,145.60
2023-04-20T05:58:42.136Z,91.80
2023-04-20T05:59:42.181Z,113.30
2023-04-20T06:00:42.145Z,50.40
2023-04-20T06:01:42.144Z,61.40
2023-04-20T06:02:42.231Z,140.90
2023-04-20T06:03:42.215Z,325.70
2023-04-20T06:04:42.306Z,365.30
2023-04-20T06:05:42.154Z,312.70
2023-04-20T06:06:42.078Z,365.00
2023-04-20T06:07:42.044Z,153.30
2023-04-20T06:08:42.037Z,163.10
2023-04-20T06:09:42.067Z,428.40
2023-04-20T06:10:42.017Z,309.40
2023-04-20T06:11:42.050Z,128.50
2023-04-20T06:12:42.090Z,151.20
2023-04-20T06:13:42.053Z,76.50
2023-04-20T06:14:42.053Z,78.40
2023-04-20T06:15:42.028Z,215.60
2023-04-20T06:16:41.960Z,160.80
2023-04-20T06:17:42.033Z,104.60
2023-04-20T06:18:41.951Z,60.20
2023-04-20T06:19:41.965Z,168.50
2023-04-20T06:20:41.928Z,422.00
2023-04-20T06:21:41.908Z,553.10
2023-04-20T06:22:41.898Z,551.90
2023-04-20T06:23:41.922Z,348.90
2023-04-20T06:24:41.926Z,328.70
2023-04-20T06:25:41.872Z,409.60
2023-04-20T06:26:41.853Z,340.30
2023-04-20T06:27:41.873Z,292.50
2023-04-20T06:28:41.871Z,483.30
2023-04-20T06:29:41.915Z,754.50
2023-04-20T06:30:41.853Z,399.90
2023-04-20T06:31:41.802Z,309.40
2023-04-20T06:32:41.823Z,54.70
2023-04-20T06:33:41.772Z,105.20
2023-04-20T06:34:41.794Z,58.70
2023-04-20T06:35:41.750Z,127.00
2023-04-20T06:36:41.711Z,63.80
2023-04-20T06:37:41.705Z,61.40
2023-04-20T06:38:41.697Z,343.60
2023-04-20T06:39:41.737Z,261.10
2023-04-20T06:40:41.681Z,320.20
2023-04-20T06:41:41.693Z,290.20
2023-04-20T06:42:41.720Z,719.50
2023-04-20T06:43:41.655Z,536.40
2023-04-20T06:44:41.658Z,277.10
2023-04-20T06:45:41.618Z,394.10
2023-04-20T06:46:41.750Z,584.00
2023-04-20T06:47:41.653Z,125.70
2023-04-20T06:48:41.586Z,43.90
2023-04-20T06:49:41.607Z,445.60
2023-04-20T06:50:41.552Z,311.10
2023-04-20T06:51:41.569Z,386.40
2023-04-20T06:52:41.554Z,739.30
2023-04-20T06:53:41.554Z,313.00
2023-04-20T06:54:41.612Z,423.30
2023-04-20T06:55:41.524Z,353.50
2023-04-20T06:56:41.514Z,670.40
2023-04-20T06:57:41.476Z,116.90
2023-04-20T06:58:41.471Z,253.90
2023-04-20T06:59:41.541Z,264.00
2023-04-20T07:00:41.449Z,329.90
2023-04-20T07:01:41.540Z,377.00
2023-04-20T07:02:41.514Z,420.10
2023-04-20T07:03:41.536Z,263.10
2023-04-20T07:04:41.463Z,159.40
2023-04-20T07:05:41.391Z,406.40
2023-04-20T07:06:41.367Z,175.20
2023-04-20T07:07:41.460Z,131.50
2023-04-20T07:08:41.412Z,37.60
2023-04-20T07:09:41.382Z,709.20
2023-04-20T07:10:41.377Z,311.00
2023-04-20T07:11:41.327Z,127.90
2023-04-20T07:12:43.119Z,235.50
2023-04-20T07:13:41.377Z,706.90
2023-04-20T07:14:41.299Z,292.20
2023-04-20T07:15:41.321Z,361.40
2023-04-20T07:16:41.329Z,435.20
2023-04-20T07:17:41.317Z,326.40
2023-04-20T07:18:41.246Z,369.00
2023-04-20T07:19:41.271Z,263.70
2023-04-20T07:20:41.263Z,272.30
2023-04-20T07:21:41.228Z,420.60
2023-04-20T07:22:41.216Z,308.50
2023-04-20T07:23:42.283Z,168.10
2023-04-20T07:24:41.180Z,173.30
2023-04-20T07:25:41.221Z,206.70
2023-04-20T07:26:41.151Z,123.10
2023-04-20T07:27:41.275Z,263.60
2023-04-20T07:28:41.157Z,299.90
2023-04-20T07:29:41.124Z,188.80
2023-04-20T07:30:41.164Z,98.10
2023-04-20T07:31:41.098Z,31.90
2023-04-20T07:32:41.173Z,34.00
2023-04-20T07:33:41.075Z,36.30
2023-04-20T07:34:41.052Z,40.70
2023-04-20T07:35:41.093Z,46.60
2023-04-20T07:36:41.038Z,138.00
2023-04-20T07:37:41.029Z,139.00
2023-04-20T07:38:41.039Z,201.70
2023-04-20T07:39:41.019Z,354.00
2023-04-20T07:40:41.036Z,534.30
2023-04-20T07:41:40.994Z,429.80
2023-04-20T07:42:40.995Z,556.60
2023-04-20T07:43:40.996Z,591.70
2023-04-20T07:44:41.026Z,57.10
2023-04-20T07:45:41.054Z,299.20
2023-04-20T07:46:40.941Z,70.10
2023-04-20T07:47:41.099Z,505.20
2023-04-20T07:48:40.944Z,602.70
2023-04-20T07:49:40.912Z,181.30
2023-04-20T07:50:40.928Z,47.60
2023-04-20T07:51:40.884Z,443.50
2023-04-20T07:52:40.862Z,550.90
2023-04-20T07:53:40.883Z,321.50
2023-04-20T07:54:40.855Z,41.50
2023-04-20T07:55:40.902Z,520.80
2023-04-20T07:56:40.842Z,525.60
2023-04-20T07:57:40.807Z,59.90
2023-04-20T07:58:40.797Z,63.70
2023-04-20T07:59:40.967Z,532.70
2023-04-20T08:00:40.809Z,450.90
2023-04-20T08:01:40.743Z,135.70
2023-04-20T08:02:41.077Z,558.70
2023-04-20T08:03:40.896Z,503.00
2023-04-20T08:04:41.187Z,510.50
2023-04-20T08:05:40.885Z,240.30
2023-04-20T08:06:40.708Z,228.70
2023-04-20T08:07:40.775Z,50.30
2023-04-20T08:08:40.707Z,539.90
2023-04-20T08:09:40.689Z,419.60
2023-04-20T08:10:40.721Z,469.80
2023-04-20T08:11:40.638Z,455.30
2023-04-20T08:12:40.639Z,454.80
2023-04-20T08:13:40.603Z,505.90
2023-04-20T08:14:40.611Z,540.10
2023-04-20T08:15:40.689Z,568.80
2023-04-20T08:16:40.612Z,521.10
2023-04-20T08:17:40.603Z,519.50
2023-04-20T08:18:40.555Z,476.60
2023-04-20T08:19:42.359Z,458.40
2023-04-20T08:20:40.605Z,491.20
2023-04-20T08:21:40.543Z,489.40
2023-04-20T08:22:40.506Z,516.90
2023-04-20T08:23:40.499Z,527.60
2023-04-20T08:24:40.520Z,491.30
2023-04-20T08:25:40.509Z,492.70
2023-04-20T08:26:40.469Z,498.30
2023-04-20T08:27:40.484Z,559.30
2023-04-20T08:28:40.457Z,555.00
2023-04-20T08:29:40.455Z,549.00
2023-04-20T08:30:40.467Z,538.20
2023-04-20T08:31:40.448Z,556.90
2023-04-20T08:32:40.410Z,33.90
2023-04-20T08:33:40.549Z,48.90
2023-04-20T08:34:40.463Z,66.50
2023-04-20T08:35:41.067Z,55.90
2023-04-20T08:36:40.390Z,70.70
2023-04-20T08:37:40.348Z,89.60
2023-04-20T08:38:40.370Z,60.00
2023-04-20T08:39:40.383Z,91.00
2023-04-20T08:40:40.363Z,64.60
2023-04-20T08:41:40.301Z,109.10
2023-04-20T08:42:40.296Z,70.20
2023-04-20T08:43:40.257Z,52.20
2023-04-20T08:44:40.262Z,50.60
2023-04-20T08:45:40.389Z,53.20
2023-04-20T08:46:40.327Z,53.90
2023-04-20T08:47:40.300Z,70.10
2023-04-20T08:48:40.210Z,93.40
2023-04-20T08:49:40.215Z,53.70
2023-04-20T08:50:40.278Z,48.00
2023-04-20T08:51:40.212Z,48.30
2023-04-20T08:52:40.165Z,72.10
2023-04-20T08:53:40.181Z,83.80
2023-04-20T08:54:55.194Z,69.60
2023-04-20T08:55:41.189Z,43.00
2023-04-20T08:56:40.129Z,39.00
2023-04-20T08:57:40.124Z,38.70
2023-04-20T08:58:40.069Z,36.10
2023-04-20T08:59:40.079Z,33.70
2023-04-20T09:00:40.068Z,42.40
2023-04-20T09:01:40.151Z,43.60
2023-04-20T09:02:40.233Z,40.00
2023-04-20T09:03:40.215Z,38.50
2023-04-20T09:04:40.237Z,38.10
2023-04-20T09:05:40.048Z,36.30
2023-04-20T09:06:40.048Z,40.80
2023-04-20T09:07:40.010Z,40.00
2023-04-20T09:08:39.972Z,43.10
2023-04-20T09:09:39.984Z,45.80
2023-04-20T09:10:39.973Z,46.20
2023-04-20T09:11:40.035Z,48.70
2023-04-20T09:12:39.952Z,44.40
2023-04-20T09:13:39.942Z,48.60
2023-04-20T09:14:39.901Z,53.10
2023-04-20T09:15:39.922Z,35.40
2023-04-20T09:16:40.016Z,40.00
2023-04-20T09:17:39.939Z,41.60
2023-04-20T09:18:39.839Z,49.10
2023-04-20T09:19:39.863Z,47.70
2023-04-20T09:20:39.827Z,41.50
2023-04-20T09:21:39.848Z,48.90
2023-04-20T09:22:39.855Z,33.10
2023-04-20T09:23:39.812Z,47.00
2023-04-20T09:24:39.841Z,53.00
2023-04-20T09:25:39.795Z,65.10
2023-04-20T09:26:39.791Z,68.20
2023-04-20T09:27:39.758Z,86.50
2023-04-20T09:28:39.785Z,86.00
2023-04-20T09:29:39.740Z,61.70
2023-04-20T09:30:39.724Z,47.30
2023-04-20T09:31:39.771Z,61.60
2023-04-20T09:32:39.780Z,48.90
2023-04-20T09:33:39.701Z,26.70
2023-04-20T09:34:39.674Z,55.90
2023-04-20T09:35:39.655Z,23.50
2023-04-20T09:36:39.713Z,43.80
2023-04-20T09:37:39.658Z,30.30
2023-04-20T09:38:39.614Z,28.00
2023-04-20T09:39:39.636Z,30.70
2023-04-20T09:40:39.629Z,37.70
2023-04-20T09:41:39.618Z,29.80
2023-04-20T09:42:39.590Z,33.80
2023-04-20T09:43:39.572Z,41.90
2023-04-20T09:44:39.557Z,101.10
2023-04-20T09:45:39.559Z,83.30
2023-04-20T09:46:39.632Z,46.80
2023-04-20T09:47:39.579Z,62.30
2023-04-20T09:48:39.499Z,75.30
2023-04-20T09:49:39.518Z,40.30
2023-04-20T09:50:48.573Z,32.30
2023-04-20T09:51:40.569Z,60.70
2023-04-20T09:52:39.461Z,66.00
2023-04-20T09:53:39.471Z,101.00
2023-04-20T09:54:39.432Z,57.50
2023-04-20T09:55:39.444Z,67.50
2023-04-20T09:56:39.498Z,64.30
2023-04-20T09:57:39.436Z,213.70
2023-04-20T09:58:39.434Z,71.40
2023-04-20T09:59:39.562Z,57.80
2023-04-20T10:00:39.416Z,38.30
2023-04-20T10:01:39.467Z,70.00
2023-04-20T10:02:39.519Z,56.40
2023-04-20T10:03:39.491Z,60.60
2023-04-20T10:04:39.414Z,151.00
2023-04-20T10:05:39.338Z,51.30
2023-04-20T10:06:39.366Z,127.20
2023-04-20T10:07:39.302Z,97.60
2023-04-20T10:08:39.293Z,93.10
2023-04-20T10:09:39.287Z,101.10
2023-04-20T10:10:39.299Z,67.50
2023-04-20T10:11:49.622Z,65.10
2023-04-20T10:12:40.242Z,36.20
2023-04-20T10:13:39.284Z,54.80
2023-04-20T10:14:39.232Z,36.50
2023-04-20T10:15:39.197Z,43.10
2023-04-20T10:16:39.384Z,33.50
2023-04-20T10:17:39.222Z,32.60
2023-04-20T10:18:39.200Z,30.60
2023-04-20T10:19:39.180Z,23.10
2023-04-20T10:20:39.148Z,33.10
2023-04-20T10:21:39.173Z,37.70
2023-04-20T10:22:39.128Z,45.40
2023-04-20T10:23:39.132Z,22.60
2023-04-20T10:24:39.124Z,36.90
2023-04-20T10:25:39.079Z,25.60
2023-04-20T10:26:39.131Z,27.40
2023-04-20T10:27:39.060Z,37.70
2023-04-20T10:28:39.170Z,87.80
2023-04-20T10:29:39.055Z,28.70
2023-04-20T10:30:39.136Z,46.60
2023-04-20T10:31:39.107Z,62.20
2023-04-20T10:32:39.053Z,55.40
2023-04-20T10:33:39.018Z,61.60
2023-04-20T10:34:38.986Z,51.90
2023-04-20T10:35:38.974Z,51.10
2023-04-20T10:36:38.992Z,37.80
2023-04-20T10:37:38.978Z,52.70
2023-04-20T10:38:38.958Z,37.80
2023-04-20T10:39:38.938Z,62.30
2023-04-20T10:40:38.956Z,71.10
2023-04-20T10:41:38.979Z,63.60
2023-04-20T10:42:38.921Z,70.10
2023-04-20T10:43:38.936Z,75.80
2023-04-20T10:44:38.867Z,56.20
2023-04-20T10:45:38.869Z,83.50
2023-04-20T10:46:38.880Z,164.20
2023-04-20T10:47:38.918Z,121.30
2023-04-20T10:48:38.835Z,189.40
2023-04-20T10:49:38.822Z,157.10
2023-04-20T10:50:38.789Z,152.10
2023-04-20T10:51:38.923Z,239.00
2023-04-20T10:52:38.820Z,141.20
2023-04-20T10:53:38.798Z,200.10
2023-04-20T10:54:38.757Z,163.70
2023-04-20T10:55:38.753Z,157.50
2023-04-20T10:56:38.824Z,247.50
2023-04-20T10:57:38.810Z,300.60
2023-04-20T10:58:38.700Z,192.60
2023-04-20T10:59:38.711Z,337.60
2023-04-20T11:00:38.691Z,267.40
2023-04-20T11:01:38.780Z,472.20
2023-04-20T11:02:38.836Z,470.50
2023-04-20T11:03:38.813Z,366.30
2023-04-20T11:04:38.682Z,281.60
2023-04-20T11:05:38.632Z,302.10
2023-04-20T11:06:38.670Z,266.90
2023-04-20T11:07:38.662Z,265.80
2023-04-20T11:08:38.639Z,274.70
2023-04-20T11:09:38.614Z,262.20
2023-04-20T11:10:38.559Z,273.50
2023-04-20T11:11:38.562Z,244.90
2023-04-20T11:12:38.559Z,274.00
2023-04-20T11:13:38.569Z,386.90
2023-04-20T11:14:38.555Z,44.00
2023-04-20T11:15:38.512Z,312.30
2023-04-20T11:16:49.623Z,192.50
2023-04-20T11:17:39.559Z,244.40
2023-04-20T11:18:38.506Z,268.00
2023-04-20T11:19:38.496Z,348.50
2023-04-20T11:20:38.447Z,281.30
2023-04-20T11:21:38.444Z,259.10
2023-04-20T11:22:38.428Z,299.40
2023-04-20T11:23:38.447Z,325.60
2023-04-20T11:24:38.396Z,222.50
2023-04-20T11:25:38.385Z,31.20
2023-04-20T11:26:38.374Z,371.60
2023-04-20T11:27:38.374Z,262.20
2023-04-20T11:28:38.391Z,353.20
2023-04-20T11:29:38.345Z,238.80
2023-04-20T11:30:39.296Z,28.00
2023-04-20T11:31:38.435Z,28.40
2023-04-20T11:32:38.672Z,26.70
2023-04-20T11:33:38.348Z,25.20
2023-04-20T11:34:38.288Z,24.40
2023-04-20T11:35:38.288Z,23.90
2023-04-20T11:36:38.298Z,23.30
2023-04-20T11:37:38.239Z,23.00
2023-04-20T11:38:38.284Z,423.00
2023-04-20T11:39:38.416Z,436.90
2023-04-20T11:40:38.234Z,473.60
2023-04-20T11:41:38.196Z,341.80
2023-04-20T11:42:38.192Z,366.00
2023-04-20T11:43:38.204Z,336.00
2023-04-20T11:44:38.158Z,325.20
2023-04-20T11:45:38.188Z,380.70
2023-04-20T11:46:38.155Z,309.50
2023-04-20T11:47:38.178Z,264.20
2023-04-20T11:48:38.162Z,132.10
2023-04-20T11:49:38.130Z,197.50
2023-04-20T11:50:39.715Z,406.30
2023-04-20T11:51:38.097Z,380.20
2023-04-20T11:52:38.098Z,323.90
2023-04-20T11:53:38.108Z,369.70
2023-04-20T11:54:38.073Z,336.00
2023-04-20T11:55:38.039Z,308.10
2023-04-20T11:56:38.023Z,367.70
2023-04-20T11:57:38.017Z,345.50
2023-04-20T11:58:38.048Z,377.60
2023-04-20T11:59:38.028Z,242.20
2023-04-20T12:00:38.010Z,293.50
2023-04-20T12:01:37.959Z,342.20
2023-04-20T12:02:38.123Z,220.60
2023-04-20T12:03:38.095Z,281.90
2023-04-20T12:04:38.045Z,261.50
2023-04-20T12:05:37.969Z,346.00
2023-04-20T12:06:37.923Z,329.00
2023-04-20T12:07:37.922Z,259.30
2023-04-20T12:08:37.929Z,256.40
2023-04-20T12:09:37.898Z,268.90
2023-04-20T12:10:37.884Z,353.90
2023-04-20T12:11:37.894Z,361.10
2023-04-20T12:12:37.865Z,318.40
2023-04-20T12:13:37.899Z,189.20
2023-04-20T12:14:37.813Z,315.30
2023-04-20T12:15:37.864Z,325.10
2023-04-20T12:16:37.786Z,383.10
2023-04-20T12:17:37.850Z,326.80
2023-04-20T12:18:37.822Z,283.20
2023-04-20T12:19:37.767Z,129.70
2023-04-20T12:20:37.761Z,23.30
2023-04-20T12:21:37.759Z,365.80
2023-04-20T12:22:37.774Z,21.20
2023-04-20T12:23:37.742Z,25.90
2023-04-20T12:24:37.703Z,27.80
2023-04-20T12:25:37.695Z,36.60
2023-04-20T12:26:38.927Z,28.20
2023-04-20T12:27:37.684Z,35.50
2023-04-20T12:28:37.709Z,237.80
2023-04-20T12:29:37.652Z,140.30
2023-04-20T12:30:37.679Z,55.20
2023-04-20T12:31:37.709Z,48.50
2023-04-20T12:32:37.781Z,41.20
2023-04-20T12:33:37.648Z,30.30
2023-04-20T12:34:37.628Z,37.60